createdAt,value
2023-01-30T00:02:18.514Z,-4.31
2023-01-30T00:05:27.195Z,-4.37
2023-01-30T00:08:35.297Z,-4.55
2023-01-30T00:11:44.991Z,-4.62
2023-01-30T00:14:53.319Z,-4.57
2023-01-30T00:18:01.576Z,-4.58
2023-01-30T00:21:13.009Z,-4.70
2023-01-30T00:24:21.428Z,-4.70
2023-01-30T00:27:32.337Z,-4.74
2023-01-30T00:30:40.993Z,-4.92
2023-01-30T00:33:49.239Z,-4.93
2023-01-30T00:37:07.859Z,-4.88
2023-01-30T00:40:17.572Z,-4.80
2023-01-30T00:43:44.995Z,-4.84
2023-01-30T00:47:08.928Z,-4.97
2023-01-30T00:50:17.933Z,-4.73
2023-01-30T00:53:26.721Z,-4.69
2023-01-30T00:56:35.127Z,-4.60
2023-01-30T00:59:44.970Z,-4.64
2023-01-30T01:02:53.454Z,-4.60
2023-01-30T01:06:01.771Z,-4.66
2023-01-30T01:09:10.235Z,-4.71
2023-01-30T01:12:18.562Z,-4.81
2023-01-30T01:15:29.303Z,-5.00
2023-01-30T01:18:37.907Z,-5.18
2023-01-30T01:21:48.837Z,-5.10
2023-01-30T01:24:57.242Z,-4.92
2023-01-30T01:28:06.169Z,-4.92
2023-01-30T01:31:18.414Z,-4.93
2023-01-30T01:34:26.876Z,-4.98
2023-01-30T01:37:35.457Z,-5.00
2023-01-30T01:41:06.289Z,-5.03
2023-01-30T01:44:17.472Z,-4.92
2023-01-30T01:47:27.759Z,-5.04
2023-01-30T01:50:45.197Z,-5.06
2023-01-30T01:54:03.049Z,-5.10
2023-01-30T01:57:22.699Z,-5.07
2023-01-30T02:00:33.318Z,-5.02
2023-01-30T02:03:48.592Z,-5.21
2023-01-30T02:06:57.794Z,-5.18
2023-01-30T02:10:09.623Z,-5.23
2023-01-30T02:13:19.010Z,-5.14
2023-01-30T02:16:28.828Z,-5.02
2023-01-30T02:19:50.722Z,-5.25
2023-01-30T02:24:02.634Z,-5.61
2023-01-30T02:27:37.355Z,-5.81
2023-01-30T02:31:26.035Z,-5.95
2023-01-30T02:34:52.560Z,-6.02
2023-01-30T02:38:20.459Z,-5.96
2023-01-30T02:41:38.472Z,-5.83
2023-01-30T02:49:37.448Z,-6.11
2023-01-30T02:52:49.550Z,-5.91
2023-01-30T02:55:58.436Z,-5.81
2023-01-30T02:59:07.497Z,-5.72
2023-01-30T03:03:12.906Z,-5.76
2023-01-30T03:06:54.448Z,-5.67
2023-01-30T03:10:10.716Z,-5.64
2023-01-30T03:13:41.310Z,-5.52
2023-01-30T03:16:56.025Z,-5.77
2023-01-30T03:20:05.261Z,-6.10
2023-01-30T03:23:15.204Z,-6.28
2023-01-30T03:26:30.734Z,-6.46
2023-01-30T03:29:40.171Z,-6.39
2023-01-30T03:32:48.545Z,-6.23
2023-01-30T03:35:57.107Z,-6.14
2023-01-30T03:39:07.112Z,-6.04
2023-01-30T03:42:15.573Z,-5.96
2023-01-30T03:45:24.479Z,-5.81
2023-01-30T03:48:33.046Z,-5.55
2023-01-30T03:51:41.230Z,-5.45
2023-01-30T03:54:50.801Z,-5.48
2023-01-30T03:57:59.621Z,-5.36
2023-01-30T04:01:13.401Z,-5.23
2023-01-30T04:04:22.862Z,-4.87
2023-01-30T04:07:32.061Z,-4.70
2023-01-30T04:10:41.785Z,-4.46
2023-01-30T04:13:50.077Z,-4.42
2023-01-30T04:16:58.635Z,-4.29
2023-01-30T04:20:21.429Z,-4.14
2023-01-30T04:23:34.058Z,-4.00
2023-01-30T04:26:46.040Z,-3.86
2023-01-30T04:29:55.600Z,-3.90
2023-01-30T04:33:03.948Z,-3.89
2023-01-30T04:36:13.696Z,-3.90
2023-01-30T04:39:22.924Z,-4.05
2023-01-30T04:42:32.782Z,-3.92
2023-01-30T04:46:03.590Z,-3.68
2023-01-30T04:49:12.967Z,-3.63
2023-01-30T04:52:21.193Z,-3.47
2023-01-30T04:55:29.853Z,-3.31
2023-01-30T04:58:39.628Z,-3.35
2023-01-30T05:01:49.172Z,-3.31
2023-01-30T05:04:57.428Z,-3.27
2023-01-30T05:08:06.500Z,-3.52
2023-01-30T05:11:14.702Z,-3.42
2023-01-30T05:14:24.951Z,-3.42
2023-01-30T05:17:33.450Z,-3.38
2023-01-30T05:20:41.872Z,-3.42
2023-01-30T05:23:50.455Z,-3.44
2023-01-30T05:26:58.684Z,-3.58
2023-01-30T05:30:10.734Z,-3.54
2023-01-30T05:33:18.932Z,-3.54
2023-01-30T05:36:27.162Z,-3.67
2023-01-30T05:39:35.428Z,-3.56
2023-01-30T05:42:43.579Z,-3.58
2023-01-30T05:45:55.885Z,-3.69
2023-01-30T05:49:04.804Z,-3.62
2023-01-30T05:52:13.090Z,-3.51
2023-01-30T05:55:21.341Z,-3.55
2023-01-30T05:58:30.271Z,-3.67
2023-01-30T06:01:39.780Z,-3.90
2023-01-30T06:04:48.054Z,-3.97
2023-01-30T06:07:56.267Z,-3.86
2023-01-30T06:11:07.399Z,-3.91
2023-01-30T06:14:15.858Z,-3.94
2023-01-30T06:17:25.365Z,-3.86
2023-01-30T06:20:33.512Z,-3.74
2023-01-30T06:23:42.304Z,-3.84
2023-01-30T06:26:50.565Z,-3.71
2023-01-30T06:29:58.767Z,-3.53
2023-01-30T06:33:09.453Z,-3.58
2023-01-30T06:36:17.710Z,-3.49
2023-01-30T06:39:26.022Z,-3.36
2023-01-30T06:42:34.381Z,-3.38
2023-01-30T06:45:42.989Z,-3.46
2023-01-30T06:48:52.484Z,-3.53
2023-01-30T06:52:00.634Z,-3.58
2023-01-30T06:55:10.457Z,-3.59
2023-01-30T06:58:18.600Z,-3.61
2023-01-30T07:01:28.923Z,-3.58
2023-01-30T07:04:38.885Z,-3.49
2023-01-30T07:07:47.072Z,-3.33
2023-01-30T07:10:55.489Z,-3.23
2023-01-30T07:14:05.674Z,-3.10
2023-01-30T07:17:15.026Z,-3.05
2023-01-30T07:20:25.058Z,-3.12
2023-01-30T07:23:33.432Z,-2.95
2023-01-30T07:26:41.747Z,-2.86
2023-01-30T07:29:51.892Z,-2.82
2023-01-30T07:33:02.201Z,-2.88
2023-01-30T07:36:12.162Z,-2.82
2023-01-30T07:39:20.710Z,-2.72
2023-01-30T07:42:29.049Z,-2.78
2023-01-30T07:45:40.677Z,-2.65
2023-01-30T07:48:49.102Z,-2.54
2023-01-30T07:51:58.882Z,-2.46
2023-01-30T07:55:08.262Z,-2.35
2023-01-30T07:58:18.095Z,-2.15
2023-01-30T08:01:26.713Z,-2.02
2023-01-30T08:04:35.289Z,-1.92
2023-01-30T08:07:44.974Z,-1.87
2023-01-30T08:10:53.871Z,-1.72
2023-01-30T08:14:03.336Z,-1.73
2023-01-30T08:17:11.880Z,-1.59
2023-01-30T08:20:21.351Z,-1.67
2023-01-30T08:23:32.310Z,-1.67
2023-01-30T08:26:40.937Z,-1.76
2023-01-30T08:29:49.715Z,-1.92
2023-01-30T08:32:58.729Z,-1.92
2023-01-30T08:36:09.729Z,-1.93
2023-01-30T08:39:20.716Z,-1.76
2023-01-30T08:42:28.957Z,-1.58
2023-01-30T08:45:37.703Z,-0.92
2023-01-30T08:48:50.052Z,-1.43
2023-01-30T08:51:58.874Z,-1.26
2023-01-30T08:55:10.828Z,-1.33
2023-01-30T08:58:19.535Z,-1.39
2023-01-30T09:01:27.938Z,-1.52
2023-01-30T09:04:36.571Z,-1.46
2023-01-30T09:07:46.266Z,-1.03
2023-01-30T09:11:00.054Z,-0.55
2023-01-30T09:14:08.228Z,-0.33
2023-01-30T09:17:16.649Z,-0.46
2023-01-30T09:20:25.726Z,-0.62
2023-01-30T09:23:34.146Z,-0.53
2023-01-30T09:26:45.241Z,-0.51
2023-01-30T09:29:53.447Z,-0.64
2023-01-30T09:33:02.335Z,-0.64
2023-01-30T09:36:11.324Z,-0.56
2023-01-30T09:39:20.285Z,-0.26
2023-01-30T09:43:06.136Z,-0.14
2023-01-30T09:46:29.486Z,0.07
2023-01-30T09:49:54.987Z,0.13
2023-01-30T09:53:11.205Z,0.28
2023-01-30T09:56:19.703Z,0.43
2023-01-30T09:59:45.150Z,0.44
2023-01-30T10:03:05.098Z,0.56
2023-01-30T10:06:16.409Z,0.82
2023-01-30T10:09:43.767Z,0.95
2023-01-30T10:13:07.133Z,1.21
2023-01-30T10:16:26.810Z,1.14
2023-01-30T10:20:04.398Z,1.21
2023-01-30T10:23:48.542Z,1.86
2023-01-30T10:26:59.541Z,2.22
2023-01-30T10:30:17.554Z,2.32
2023-01-30T10:33:36.155Z,1.99
2023-01-30T10:36:53.417Z,1.76
2023-01-30T10:40:13.971Z,1.85
2023-01-30T10:43:31.444Z,2.21
2023-01-30T10:47:10.194Z,2.00
2023-01-30T10:50:27.223Z,1.89
2023-01-30T10:53:46.252Z,2.00
2023-01-30T10:57:08.009Z,2.56
2023-01-30T11:00:29.708Z,2.64
2023-01-30T11:03:46.223Z,2.84
2023-01-30T11:06:59.335Z,3.23
2023-01-30T11:10:19.458Z,3.69
2023-01-30T11:13:31.898Z,3.84
2023-01-30T11:16:48.380Z,3.66
2023-01-30T11:19:59.221Z,3.84
2023-01-30T11:23:22.975Z,4.41
2023-01-30T11:26:47.095Z,4.34
2023-01-30T11:30:16.362Z,4.22
2023-01-30T11:33:34.516Z,4.50
2023-01-30T11:36:43.355Z,4.38
2023-01-30T11:39:54.500Z,4.63
2023-01-30T11:43:06.772Z,4.39
2023-01-30T11:46:20.724Z,4.10
2023-01-30T11:49:51.475Z,3.98
2023-01-30T11:53:27.923Z,3.74
2023-01-30T11:56:42.604Z,3.55
2023-01-30T11:59:58.027Z,3.34
2023-01-30T12:03:12.869Z,3.43
2023-01-30T12:06:33.275Z,3.84
2023-01-30T12:09:41.716Z,4.11
2023-01-30T12:12:54.794Z,4.02
2023-01-30T12:16:20.624Z,3.79
2023-01-30T12:19:45.994Z,3.62
2023-01-30T12:23:12.094Z,3.37
2023-01-30T12:26:27.824Z,3.40
2023-01-30T12:29:49.082Z,3.32
2023-01-30T12:36:35.746Z,3.24
2023-01-30T12:40:01.718Z,3.03
2023-01-30T12:43:40.784Z,2.91
2023-01-30T12:47:13.155Z,2.88
2023-01-30T12:50:34.841Z,2.87
2023-01-30T12:54:01.878Z,2.89
2023-01-30T12:57:25.242Z,2.84
2023-01-30T13:00:53.283Z,2.75
2023-01-30T13:04:15.417Z,2.76
2023-01-30T13:07:34.462Z,2.65
2023-01-30T13:10:53.385Z,2.59
2023-01-30T13:14:17.045Z,2.65
2023-01-30T13:18:00.726Z,2.77
2023-01-30T13:21:19.848Z,2.78
2023-01-30T13:24:49.149Z,2.90
2023-01-30T13:28:04.301Z,2.86
2023-01-30T13:31:18.737Z,3.00
2023-01-30T13:34:35.454Z,3.15
2023-01-30T13:37:49.232Z,3.08
2023-01-30T13:41:01.631Z,3.08
2023-01-30T13:44:22.868Z,3.02
2023-01-30T13:47:49.904Z,2.94
2023-01-30T13:51:32.354Z,2.98
2023-01-30T13:55:01.829Z,3.01
2023-01-30T13:58:32.677Z,2.98
2023-01-30T14:02:19.903Z,2.92
2023-01-30T14:06:04.767Z,2.88
2023-01-30T14:09:25.730Z,2.89
2023-01-30T14:12:41.971Z,2.85
2023-01-30T14:15:57.543Z,2.90
2023-01-30T14:19:46.708Z,2.78
2023-01-30T14:22:57.986Z,2.82
2023-01-30T14:26:06.411Z,2.92
2023-01-30T14:29:54.022Z,2.89
2023-01-30T14:33:03.968Z,2.97
2023-01-30T14:36:38.063Z,2.98
2023-01-30T14:39:56.352Z,3.03
2023-01-30T14:43:53.259Z,2.87
2023-01-30T14:47:33.942Z,2.87
2023-01-30T14:50:32.216Z,2.81
2023-01-30T14:53:55.370Z,2.76
2023-01-30T14:57:07.176Z,2.67
2023-01-30T15:00:21.880Z,2.68
2023-01-30T15:03:39.526Z,2.60
2023-01-30T15:06:50.694Z,2.62
2023-01-30T15:10:03.968Z,2.67
2023-01-30T15:13:59.968Z,2.71
2023-01-30T15:17:27.468Z,2.64
2023-01-30T15:20:55.267Z,2.60
2023-01-30T15:24:27.030Z,2.60
2023-01-30T15:27:55.923Z,2.53
2023-01-30T15:31:13.654Z,2.51
2023-01-30T15:34:23.465Z,2.49
2023-01-30T15:37:39.618Z,2.43
2023-01-30T15:40:48.463Z,2.45
2023-01-30T15:44:45.302Z,2.47
2023-01-30T15:48:23.760Z,2.42
2023-01-30T15:51:35.171Z,2.39
2023-01-30T15:54:51.270Z,2.34
2023-01-30T15:58:07.718Z,2.39
2023-01-30T16:01:22.533Z,2.35
2023-01-30T16:04:32.089Z,2.27
2023-01-30T16:07:40.719Z,2.24
2023-01-30T16:10:51.895Z,2.23
2023-01-30T16:14:00.660Z,2.22
2023-01-30T16:17:12.699Z,2.19
2023-01-30T16:20:21.028Z,2.17
2023-01-30T16:23:34.981Z,2.15
2023-01-30T16:26:48.540Z,2.15
2023-01-30T16:30:00.565Z,2.17
2023-01-30T16:33:12.255Z,2.13
2023-01-30T16:36:40.642Z,2.04
2023-01-30T16:40:12.870Z,1.95
2023-01-30T16:43:27.217Z,1.82
2023-01-30T16:46:53.182Z,1.81
2023-01-30T16:50:02.073Z,1.71
2023-01-30T16:53:18.429Z,1.77
2023-01-30T16:56:29.654Z,1.61
2023-01-30T16:59:40.310Z,1.66
2023-01-30T17:02:54.851Z,1.58
2023-01-30T17:06:12.585Z,1.57
2023-01-30T17:09:39.397Z,1.54
2023-01-30T17:12:53.197Z,1.50
2023-01-30T17:16:34.082Z,1.50
2023-01-30T17:19:42.591Z,1.43
2023-01-30T17:22:53.893Z,1.46
2023-01-30T17:26:02.189Z,1.42
2023-01-30T17:29:23.383Z,1.50
2023-01-30T17:32:40.859Z,1.63
2023-01-30T17:35:50.064Z,1.65
2023-01-30T17:39:00.586Z,1.69
2023-01-30T17:42:13.591Z,1.73
2023-01-30T17:45:31.199Z,1.78
2023-01-30T17:48:41.627Z,1.82
2023-01-30T17:51:53.898Z,1.77
2023-01-30T17:55:02.372Z,1.72
2023-01-30T17:58:20.455Z,1.77
2023-01-30T18:01:29.036Z,1.79
2023-01-30T18:04:40.080Z,1.70
2023-01-30T18:07:48.795Z,1.63
2023-01-30T18:10:57.883Z,1.63
2023-01-30T18:14:07.234Z,1.63
2023-01-30T18:17:15.705Z,1.51
2023-01-30T18:20:25.819Z,1.66
2023-01-30T18:23:34.453Z,1.66
2023-01-30T18:26:43.864Z,1.67
2023-01-30T18:29:53.105Z,1.67
2023-01-30T18:33:01.270Z,1.62
2023-01-30T18:36:13.735Z,1.55
2023-01-30T18:39:22.139Z,1.54
2023-01-30T18:42:30.711Z,1.54
2023-01-30T18:45:40.142Z,1.50
2023-01-30T18:48:49.238Z,1.48
2023-01-30T18:51:59.701Z,1.55
2023-01-30T18:55:09.386Z,1.52
2023-01-30T18:58:17.693Z,1.47
2023-01-30T19:01:28.911Z,1.54
2023-01-30T19:04:37.420Z,1.57
2023-01-30T19:07:47.829Z,1.59
2023-01-30T19:11:16.311Z,1.58
2023-01-30T19:14:23.559Z,1.60
2023-01-30T19:17:32.044Z,1.66
2023-01-30T19:20:41.218Z,1.63
2023-01-30T19:23:51.417Z,1.68
2023-01-30T19:26:59.867Z,1.73
2023-01-30T19:30:10.583Z,1.73
2023-01-30T19:33:20.748Z,1.77
2023-01-30T19:36:33.503Z,1.80
2023-01-30T19:39:43.486Z,1.74
2023-01-30T19:42:54.694Z,1.74
2023-01-30T19:46:06.301Z,1.79
2023-01-30T19:49:15.057Z,1.80
2023-01-30T19:52:24.140Z,1.77
2023-01-30T19:55:36.660Z,1.84
2023-01-30T19:58:45.212Z,1.79
2023-01-30T20:01:53.531Z,1.84
2023-01-30T20:05:02.557Z,1.85
2023-01-30T20:08:21.832Z,1.79
2023-01-30T20:11:41.986Z,1.84
2023-01-30T20:14:51.283Z,1.77
2023-01-30T20:17:59.738Z,1.60
2023-01-30T20:21:10.630Z,1.48
2023-01-30T20:24:19.295Z,1.42
2023-01-30T20:27:29.510Z,1.44
2023-01-30T20:30:40.960Z,1.54
2023-01-30T20:33:50.064Z,1.61
2023-01-30T20:36:59.759Z,1.68
2023-01-30T20:40:10.264Z,1.71
2023-01-30T20:43:20.186Z,1.72
2023-01-30T20:46:32.204Z,1.77
2023-01-30T20:49:40.666Z,1.73
2023-01-30T20:52:51.472Z,1.73
2023-01-30T20:56:00.125Z,1.78
2023-01-30T20:59:12.609Z,1.70
2023-01-30T21:02:21.035Z,1.75
2023-01-30T21:05:29.606Z,1.74
2023-01-30T21:08:41.530Z,1.77
2023-01-30T21:11:52.660Z,1.72
2023-01-30T21:15:02.231Z,1.74
2023-01-30T21:18:10.692Z,1.79
2023-01-30T21:21:22.483Z,1.73
2023-01-30T21:24:30.895Z,1.69
2023-01-30T21:27:40.749Z,1.77
2023-01-30T21:30:51.434Z,1.72
2023-01-30T21:34:00.830Z,1.74
2023-01-30T21:37:26.376Z,1.71
2023-01-30T21:40:51.998Z,1.75
2023-01-30T21:44:00.434Z,1.79
2023-01-30T21:47:10.037Z,1.81
2023-01-30T21:50:18.947Z,1.76
2023-01-30T21:53:28.107Z,1.72
2023-01-30T21:56:36.775Z,1.77
2023-01-30T21:59:45.209Z,1.83
2023-01-30T22:02:54.920Z,1.79
2023-01-30T22:06:03.991Z,1.75
2023-01-30T22:09:16.414Z,1.77
2023-01-30T22:12:25.162Z,1.70
2023-01-30T22:15:34.313Z,1.77
2023-01-30T22:18:45.768Z,1.72
2023-01-30T22:21:55.221Z,1.79
2023-01-30T22:25:03.776Z,1.78
2023-01-30T22:28:12.284Z,1.76
2023-01-30T22:31:22.222Z,1.78
2023-01-30T22:34:33.542Z,1.82
2023-01-30T22:37:43.082Z,1.83
2023-01-30T22:40:51.805Z,1.81
2023-01-30T22:44:02.393Z,1.79
2023-01-30T22:47:11.159Z,1.78
2023-01-30T22:50:21.289Z,1.77
2023-01-30T22:53:33.923Z,1.80
2023-01-30T22:56:44.271Z,1.77
2023-01-30T22:59:52.781Z,1.79
2023-01-30T23:03:01.106Z,1.78
2023-01-30T23:06:14.866Z,1.76
2023-01-30T23:09:24.582Z,1.69
2023-01-30T23:12:55.846Z,1.76
2023-01-30T23:16:06.891Z,1.75
2023-01-30T23:19:14.205Z,1.76
2023-01-30T23:22:24.118Z,1.78
2023-01-30T23:25:32.423Z,1.76
2023-01-30T23:28:41.612Z,1.78
2023-01-30T23:31:50.071Z,1.80
2023-01-30T23:34:58.397Z,1.76
2023-01-30T23:38:18.945Z,1.80
2023-01-30T23:41:30.457Z,1.78
2023-01-30T23:44:38.990Z,1.80
2023-01-30T23:47:47.094Z,1.85
2023-01-30T23:50:55.204Z,1.70
2023-01-30T23:54:06.721Z,1.80
2023-01-30T23:57:15.013Z,1.79
